Time;durP1;ratioP1;P1;durP2;ratioP2;P2;SDS_P1;SDS_P2;PMS_P1;PMS_P2;Temp;Humidity;BMP_temperature;BMP_pressure;BME280_temperature;BME280_humidity;BME280_pressure;Samples;Min_cycle;Max_cycle;Signal;HPM_P1;HPM_P2
2022/07/21 00:00:06;;;;;;;9.52;7.00;;;21.10;89.30;;;;;;5074713;28;20063;-84
2022/07/21 00:02:32;;;;;;;9.43;6.85;;;21.10;89.40;;;;;;5058151;28;20052;-86
2022/07/21 00:04:58;;;;;;;11.15;6.60;;;21.10;89.70;;;;;;5057254;28;20081;-83
2022/07/21 00:07:23;;;;;;;7.72;6.05;;;21.10;90.00;;;;;;5074700;28;20082;-84
2022/07/21 00:09:49;;;;;;;8.55;6.78;;;21.10;89.90;;;;;;5056666;28;20032;-84
2022/07/21 00:12:14;;;;;;;9.38;5.85;;;21.10;90.00;;;;;;5052625;28;20024;-81
2022/07/21 00:14:40;;;;;;;9.85;6.68;;;21.10;90.10;;;;;;5073004;28;20035;-84
2022/07/21 00:17:06;;;;;;;9.55;6.47;;;21.00;90.00;;;;;;5056686;28;20033;-85
2022/07/21 00:19:31;;;;;;;10.23;7.28;;;21.10;90.00;;;;;;5056167;28;20036;-83
2022/07/21 00:21:57;;;;;;;11.10;6.95;;;21.00;90.00;;;;;;5056361;28;20477;-82
2022/07/21 00:24:22;;;;;;;11.10;8.00;;;21.00;90.00;;;;;;5074114;28;20028;-82
2022/07/21 00:26:48;;;;;;;10.52;7.75;;;20.90;90.10;;;;;;5056384;28;20060;-82
2022/07/21 00:29:14;;;;;;;12.10;8.77;;;21.00;90.30;;;;;;5056248;28;20499;-82
2022/07/21 00:31:39;;;;;;;13.32;9.48;;;20.90;90.40;;;;;;5056184;28;20477;-82
2022/07/21 00:34:05;;;;;;;15.13;10.07;;;20.90;90.60;;;;;;5074064;28;20039;-83
2022/07/21 00:36:30;;;;;;;12.75;10.15;;;21.00;90.70;;;;;;5073937;28;20039;-82
2022/07/21 00:38:56;;;;;;;16.75;11.63;;;21.00;90.80;;;;;;5056314;28;20415;-83
2022/07/21 00:41:22;;;;;;;14.40;11.35;;;21.00;91.00;;;;;;5056069;28;20044;-83
2022/07/21 00:43:47;;;;;;;15.88;11.25;;;21.00;91.00;;;;;;5056185;28;20047;-83
2022/07/21 00:46:13;;;;;;;15.50;10.60;;;21.00;91.10;;;;;;5055945;28;20082;-83
2022/07/21 00:48:39;;;;;;;14.48;10.68;;;21.00;91.20;;;;;;5070282;28;20043;-83
2022/07/21 00:51:04;;;;;;;17.13;11.65;;;21.00;91.30;;;;;;5052630;28;20025;-83
2022/07/21 00:53:30;;;;;;;13.80;11.02;;;20.90;91.40;;;;;;5035742;28;20033;-84
2022/07/21 00:55:56;;;;;;;13.93;11.38;;;20.90;91.50;;;;;;5053771;28;20049;-83
2022/07/21 00:58:23;;;;;;;13.77;10.65;;;21.00;91.50;;;;;;5054272;28;20041;-82
2022/07/21 01:00:49;;;;;;;14.73;11.18;;;20.90;91.50;;;;;;5036421;28;20037;-83
2022/07/21 01:03:14;;;;;;;13.55;11.32;;;20.90;91.60;;;;;;5019476;28;20048;-83
2022/07/21 01:05:40;;;;;;;15.20;11.23;;;20.90;91.70;;;;;;5053719;28;20033;-82
2022/07/21 01:08:06;;;;;;;13.05;11.15;;;20.80;91.60;;;;;;5036626;28;20477;-84
2022/07/21 01:10:32;;;;;;;13.68;9.70;;;20.80;92.00;;;;;;5053878;28;20106;-82
2022/07/21 01:12:59;;;;;;;13.10;9.57;;;20.70;91.70;;;;;;5053765;28;20515;-84
2022/07/21 01:15:24;;;;;;;12.02;9.43;;;20.70;91.70;;;;;;5068919;28;20431;-83
2022/07/21 01:17:51;;;;;;;10.38;8.93;;;20.60;91.70;;;;;;5053721;28;20098;-83
2022/07/21 01:20:21;;;;;;;13.00;10.25;;;20.70;91.80;;;;;;5053924;28;20057;-84
2022/07/21 01:22:50;;;;;;;12.70;9.75;;;20.60;91.70;;;;;;5053442;28;20032;-84
2022/07/21 01:25:18;;;;;;;12.30;9.50;;;20.60;92.10;;;;;;5053185;28;20061;-83
2022/07/21 01:27:44;;;;;;;13.40;10.07;;;20.60;91.90;;;;;;5035604;28;20029;-84
2022/07/21 01:30:11;;;;;;;12.65;10.07;;;20.60;91.90;;;;;;5035728;28;20060;-84
2022/07/21 01:32:38;;;;;;;12.40;9.35;;;20.60;92.10;;;;;;5035660;28;20105;-84
2022/07/21 01:35:06;;;;;;;11.77;9.70;;;20.60;92.10;;;;;;5035902;28;20025;-84
2022/07/21 01:37:34;;;;;;;12.35;8.93;;;20.50;92.10;;;;;;5054042;28;20539;-84
2022/07/21 01:42:43;;;;;;;;;;;20.50;92.20;;;;;;5039098;28;20071;-83
2022/07/21 01:45:09;;;;;;;13.82;9.82;;;20.40;92.20;;;;;;5035743;28;19909;-84
2022/07/21 01:47:35;;;;;;;13.95;10.57;;;20.40;92.30;;;;;;5069200;28;20033;-84
2022/07/21 01:50:01;;;;;;;13.02;10.45;;;20.40;92.60;;;;;;5052579;28;20094;-85
2022/07/21 01:52:26;;;;;;;13.60;10.90;;;20.40;92.40;;;;;;5035476;28;20044;-84
2022/07/21 01:54:52;;;;;;;12.52;10.75;;;20.40;92.50;;;;;;5035414;28;20049;-85
2022/07/21 01:57:18;;;;;;;14.73;11.20;;;20.40;92.60;;;;;;5053746;28;20086;-83
2022/07/21 01:59:44;;;;;;;15.70;12.05;;;20.40;92.80;;;;;;5053497;28;20048;-85
2022/07/21 02:02:10;;;;;;;14.57;11.98;;;20.40;92.80;;;;;;5035815;28;20477;-84
2022/07/21 02:04:36;;;;;;;13.07;11.70;;;20.40;92.80;;;;;;5035879;28;20036;-85
2022/07/21 02:07:02;;;;;;;16.17;12.85;;;20.30;92.80;;;;;;5065127;28;20481;-85
2022/07/21 02:09:28;;;;;;;15.20;12.90;;;20.30;93.00;;;;;;5073542;28;20098;-85
2022/07/21 02:11:54;;;;;;;16.60;12.10;;;20.20;93.00;;;;;;5074694;28;20021;-84
2022/07/21 02:14:20;;;;;;;16.08;12.27;;;20.20;93.10;;;;;;5070258;28;20033;-84
2022/07/21 02:16:45;;;;;;;17.10;11.70;;;20.20;93.20;;;;;;5075978;28;20082;-84
2022/07/21 02:19:11;;;;;;;14.82;12.82;;;20.20;93.30;;;;;;5077591;28;20036;-84
2022/07/21 02:21:37;;;;;;;16.15;13.57;;;20.10;93.30;;;;;;5060997;28;20411;-85
2022/07/21 02:24:03;;;;;;;14.80;12.27;;;20.10;93.60;;;;;;5077043;28;20035;-84
2022/07/21 02:26:28;;;;;;;15.00;12.93;;;20.00;93.40;;;;;;5058707;28;20409;-84
2022/07/21 02:28:54;;;;;;;17.15;13.77;;;20.00;93.50;;;;;;5076887;28;20033;-85
2022/07/21 02:31:20;;;;;;;16.83;13.77;;;20.00;93.60;;;;;;5077303;28;20104;-84
2022/07/21 02:33:45;;;;;;;17.38;14.10;;;20.00;93.70;;;;;;5076517;28;20124;-85
2022/07/21 02:36:11;;;;;;;16.88;13.80;;;20.00;93.80;;;;;;5058522;28;20032;-85
2022/07/21 02:38:37;;;;;;;16.92;13.73;;;20.00;94.00;;;;;;5059153;28;20402;-85
2022/07/21 02:41:03;;;;;;;17.23;14.27;;;20.00;94.40;;;;;;5058472;28;20052;-85
2022/07/21 02:43:29;;;;;;;18.67;14.50;;;19.90;94.20;;;;;;5058715;28;20020;-84
2022/07/21 02:45:54;;;;;;;16.10;13.63;;;20.00;94.30;;;;;;5076359;28;20052;-85
2022/07/21 02:48:20;;;;;;;18.95;14.25;;;20.00;94.40;;;;;;5076074;28;20031;-85
2022/07/21 02:50:46;;;;;;;17.50;14.35;;;20.00;94.50;;;;;;5058384;28;20025;-85
2022/07/21 02:53:14;;;;;;;19.02;15.15;;;20.00;94.60;;;;;;5058395;28;20029;-85
2022/07/21 02:55:41;;;;;;;16.13;13.65;;;20.00;94.60;;;;;;5075997;28;20377;-86
2022/07/21 02:58:08;;;;;;;19.50;14.57;;;20.10;94.70;;;;;;5076333;28;20417;-84
2022/07/21 03:00:36;;;;;;;17.73;15.27;;;20.10;94.70;;;;;;5077075;28;20027;-85
2022/07/21 03:03:03;;;;;;;16.45;13.68;;;20.10;94.80;;;;;;5076319;28;20032;-85
2022/07/21 03:05:29;;;;;;;17.45;14.43;;;20.10;94.80;;;;;;5077633;28;20052;-85
2022/07/21 03:07:55;;;;;;;19.00;15.20;;;20.10;94.80;;;;;;5056476;28;20083;-85
2022/07/21 03:10:20;;;;;;;18.58;14.90;;;20.10;94.90;;;;;;5038336;28;20082;-75
2022/07/21 03:12:46;;;;;;;18.83;15.15;;;20.10;95.00;;;;;;5037664;28;20025;-75
2022/07/21 03:15:12;;;;;;;16.88;13.88;;;20.10;95.00;;;;;;5055549;28;20029;-75
2022/07/21 03:17:37;;;;;;;20.20;14.82;;;20.10;95.10;;;;;;5054113;28;20037;-76
2022/07/21 03:20:04;;;;;;;18.27;16.05;;;20.00;95.10;;;;;;5055501;28;20056;-75
2022/07/21 03:22:29;;;;;;;20.67;17.17;;;20.00;95.10;;;;;;5055338;28;20126;-75
2022/07/21 03:24:55;;;;;;;19.73;15.63;;;20.10;95.30;;;;;;5054186;28;20076;-75
2022/07/21 03:27:20;;;;;;;19.25;15.13;;;20.10;95.40;;;;;;5037252;28;20381;-75
2022/07/21 03:29:46;;;;;;;17.70;14.13;;;20.00;95.30;;;;;;5054050;28;20029;-76
2022/07/21 03:32:12;;;;;;;18.30;14.82;;;20.00;95.30;;;;;;5055053;28;20429;-75
2022/07/21 03:34:37;;;;;;;17.02;13.48;;;20.00;95.30;;;;;;5055223;28;20029;-76
2022/07/21 03:37:03;;;;;;;16.45;13.23;;;20.00;95.40;;;;;;5037172;28;20033;-75
2022/07/21 03:39:29;;;;;;;17.70;13.55;;;20.00;95.40;;;;;;5054895;28;20389;-75
2022/07/21 03:41:55;;;;;;;21.42;14.50;;;20.00;95.50;;;;;;5054771;28;20036;-75
2022/07/21 03:44:20;;;;;;;18.02;13.38;;;20.00;95.40;;;;;;5054758;28;20037;-75
2022/07/21 03:46:46;;;;;;;16.40;13.88;;;20.00;95.50;;;;;;5054669;28;20029;-75
2022/07/21 03:49:11;;;;;;;18.45;14.02;;;20.00;95.50;;;;;;5036865;28;20120;-75
2022/07/21 03:51:37;;;;;;;20.95;15.35;;;20.00;95.60;;;;;;5037000;28;20031;-76
2022/07/21 03:54:03;;;;;;;17.67;13.73;;;20.00;95.50;;;;;;5054570;28;20029;-76
2022/07/21 03:56:29;;;;;;;19.75;15.25;;;20.00;95.50;;;;;;5054668;28;20025;-76
2022/07/21 03:58:55;;;;;;;18.45;14.32;;;20.00;95.60;;;;;;5036685;28;20077;-75
2022/07/21 04:01:20;;;;;;;17.88;15.15;;;20.00;95.60;;;;;;5053791;28;20068;-76
2022/07/21 04:03:46;;;;;;;16.98;15.18;;;20.00;95.60;;;;;;5056887;28;20394;-76
2022/07/21 04:06:12;;;;;;;18.35;16.05;;;20.00;95.60;;;;;;5074353;28;20490;-76
2022/07/21 04:08:38;;;;;;;21.92;15.73;;;19.90;95.60;;;;;;5074605;28;20040;-76
2022/07/21 04:11:04;;;;;;;18.58;14.95;;;19.90;95.70;;;;;;5074885;28;20020;-76
2022/07/21 04:13:30;;;;;;;22.17;17.10;;;19.90;95.60;;;;;;5074666;28;20454;-75
2022/07/21 04:15:56;;;;;;;21.65;16.77;;;19.90;95.80;;;;;;5074362;28;20020;-75
2022/07/21 04:18:21;;;;;;;22.98;16.67;;;19.90;95.80;;;;;;5056944;28;20558;-76
2022/07/21 04:20:47;;;;;;;20.67;16.58;;;19.90;95.90;;;;;;5074250;28;20067;-75
2022/07/21 04:23:12;;;;;;;19.63;17.25;;;19.80;95.90;;;;;;5056522;28;20033;-75
2022/07/21 04:25:38;;;;;;;20.35;16.42;;;19.90;96.00;;;;;;5056612;28;20103;-75
2022/07/21 04:28:05;;;;;;;19.42;16.73;;;19.90;96.00;;;;;;5074279;28;20464;-76
2022/07/21 04:30:31;;;;;;;22.95;18.35;;;19.80;96.00;;;;;;5074156;28;20028;-75
2022/07/21 04:32:57;;;;;;;22.38;17.10;;;19.80;95.90;;;;;;5074181;28;20024;-75
2022/07/21 04:35:23;;;;;;;19.52;15.88;;;19.80;96.00;;;;;;5074437;28;20074;-76
2022/07/21 04:37:49;;;;;;;18.75;15.52;;;19.90;96.00;;;;;;5073040;28;20457;-76
2022/07/21 04:40:16;;;;;;;18.73;16.38;;;19.90;96.10;;;;;;5055336;28;20573;-76
2022/07/21 04:42:43;;;;;;;20.67;16.42;;;19.90;96.00;;;;;;5062026;28;20086;-76
2022/07/21 04:45:11;;;;;;;22.38;17.52;;;19.80;96.20;;;;;;5049349;28;20036;-76
2022/07/21 04:47:47;;;;;;;19.65;16.35;;;19.80;96.10;;;;;;5052761;28;20106;-76
2022/07/21 04:50:14;;;;;;;21.83;17.05;;;19.90;96.20;;;;;;5058555;28;20040;-76
2022/07/21 04:52:40;;;;;;;22.95;17.88;;;19.80;96.20;;;;;;5065584;28;20034;-76
2022/07/21 04:55:06;;;;;;;22.73;17.77;;;19.80;96.20;;;;;;5072325;28;20041;-76
2022/07/21 04:57:36;;;;;;;23.67;18.90;;;19.80;96.20;;;;;;5068812;28;20036;-77
2022/07/21 05:00:05;;;;;;;24.02;19.35;;;19.90;96.40;;;;;;5051614;28;20020;-76
2022/07/21 05:02:31;;;;;;;22.88;16.95;;;19.80;96.30;;;;;;5061877;28;20500;-76
2022/07/21 05:04:56;;;;;;;21.75;17.42;;;19.80;96.40;;;;;;5069221;28;20115;-76
2022/07/21 05:07:22;;;;;;;29.13;18.67;;;19.80;96.40;;;;;;5072770;28;20024;-76
2022/07/21 05:09:47;;;;;;;21.92;17.95;;;19.80;96.50;;;;;;5063599;28;20024;-76
2022/07/21 05:12:13;;;;;;;25.95;17.77;;;19.80;96.50;;;;;;5059556;28;20074;-76
2022/07/21 05:14:42;;;;;;;25.25;18.92;;;19.80;96.40;;;;;;5069757;28;20052;-75
2022/07/21 05:17:07;;;;;;;26.65;18.33;;;19.80;96.50;;;;;;5053263;28;20055;-75
2022/07/21 05:19:33;;;;;;;23.92;18.98;;;19.80;96.60;;;;;;5071780;28;20032;-76
2022/07/21 05:21:58;;;;;;;26.65;20.40;;;19.90;96.70;;;;;;5054318;28;20039;-76
2022/07/21 05:24:24;;;;;;;24.15;19.27;;;19.90;96.80;;;;;;5073591;28;20028;-76
2022/07/21 05:26:50;;;;;;;24.95;19.25;;;19.90;96.80;;;;;;5073090;28;20323;-76
2022/07/21 05:29:15;;;;;;;28.98;21.95;;;19.90;96.70;;;;;;5073089;28;20033;-75
2022/07/21 05:31:41;;;;;;;25.20;20.55;;;19.90;96.80;;;;;;5071764;28;20115;-75
2022/07/21 05:34:07;;;;;;;28.52;20.83;;;19.90;96.80;;;;;;5071602;28;20027;-76
2022/07/21 05:36:32;;;;;;;26.30;21.23;;;19.90;96.80;;;;;;5054271;28;20110;-76
2022/07/21 05:38:58;;;;;;;27.90;21.95;;;19.90;97.00;;;;;;5072431;28;20020;-76
2022/07/21 05:41:24;;;;;;;26.90;21.35;;;19.90;96.90;;;;;;5049730;28;20437;-76
2022/07/21 05:43:49;;;;;;;28.00;22.52;;;19.80;97.00;;;;;;5055197;28;20104;-76
2022/07/21 05:46:15;;;;;;;26.20;20.98;;;19.80;97.00;;;;;;5055090;28;20036;-76
2022/07/21 05:48:41;;;;;;;31.25;23.25;;;19.90;97.00;;;;;;5070510;28;20056;-76
2022/07/21 05:51:06;;;;;;;31.27;24.20;;;19.80;97.00;;;;;;5054583;28;20032;-76
2022/07/21 05:53:32;;;;;;;26.88;21.15;;;19.80;97.20;;;;;;5039476;28;20036;-76
2022/07/21 05:55:58;;;;;;;30.92;21.77;;;19.80;97.20;;;;;;5076210;28;20052;-75
2022/07/21 05:58:24;;;;;;;27.10;22.02;;;19.80;97.10;;;;;;5058991;28;20414;-76
2022/07/21 06:01:09;;;;;;;28.55;23.00;;;19.80;97.10;;;;;;5059097;28;20036;-76
2022/07/21 06:03:51;;;;;;;26.35;21.95;;;19.90;97.20;;;;;;5061567;28;20042;-76
2022/07/21 06:06:18;;;;;;;25.30;19.88;;;19.90;97.20;;;;;;5076556;28;20029;-76
2022/07/21 06:08:46;;;;;;;24.30;20.83;;;19.90;97.10;;;;;;5076849;28;20369;-76
2022/07/21 06:11:14;;;;;;;23.95;20.42;;;20.00;97.10;;;;;;5058544;28;20468;-76
2022/07/21 06:13:40;;;;;;;26.38;20.08;;;20.00;97.00;;;;;;5076434;28;20082;-76
2022/07/21 06:16:07;;;;;;;24.10;18.80;;;20.00;96.90;;;;;;5075563;28;20024;-76
2022/07/21 06:18:32;;;;;;;20.05;15.85;;;20.00;96.90;;;;;;5075755;28;20039;-76
2022/07/21 06:20:58;;;;;;;18.73;15.77;;;20.00;96.90;;;;;;5057614;28;20061;-76
2022/07/21 06:23:24;;;;;;;23.67;18.00;;;20.10;96.80;;;;;;5075605;28;20028;-76
2022/07/21 06:25:51;;;;;;;24.35;19.50;;;20.00;96.70;;;;;;5075946;28;20163;-76
2022/07/21 06:28:17;;;;;;;24.25;19.70;;;20.00;96.70;;;;;;5075697;28;20078;-76
2022/07/21 06:30:43;;;;;;;19.52;15.10;;;20.10;96.60;;;;;;5075801;28;20095;-76
2022/07/21 06:33:09;;;;;;;24.95;18.50;;;20.10;96.50;;;;;;5056337;28;20032;-75
2022/07/21 06:35:35;;;;;;;20.48;17.08;;;20.20;96.50;;;;;;5075569;28;20108;-76
2022/07/21 06:38:01;;;;;;;21.40;16.65;;;20.20;96.50;;;;;;5075744;28;20025;-75
2022/07/21 06:40:27;;;;;;;21.75;16.52;;;20.20;96.40;;;;;;5075651;28;20473;-76
2022/07/21 06:42:52;;;;;;;22.40;17.42;;;20.20;96.30;;;;;;5075488;28;20384;-75
2022/07/21 06:45:18;;;;;;;21.38;16.27;;;20.20;96.20;;;;;;5075484;28;20074;-75
2022/07/21 06:47:44;;;;;;;24.65;16.85;;;20.20;96.10;;;;;;5074350;28;20016;-75
2022/07/21 06:50:10;;;;;;;23.90;18.67;;;20.30;96.20;;;;;;5056960;28;20480;-75
2022/07/21 06:52:36;;;;;;;24.67;19.25;;;20.30;96.10;;;;;;5057659;28;20016;-75
2022/07/21 06:55:05;;;;;;;24.95;21.08;;;20.30;95.90;;;;;;5075239;28;20099;-75
2022/07/21 06:57:31;;;;;;;27.63;20.98;;;20.30;95.80;;;;;;5057192;28;20033;-75
2022/07/21 06:59:56;;;;;;;25.90;20.73;;;20.30;95.80;;;;;;5075106;28;20078;-75
2022/07/21 07:02:22;;;;;;;27.48;19.10;;;20.40;95.80;;;;;;5075036;28;20086;-77
2022/07/21 07:04:48;;;;;;;24.35;19.85;;;20.50;95.80;;;;;;5054358;28;20060;-74
2022/07/21 07:07:13;;;;;;;30.92;21.15;;;20.50;95.60;;;;;;5075229;28;20120;-75
2022/07/21 07:09:40;;;;;;;22.73;17.98;;;20.50;95.50;;;;;;5074973;28;20537;-75
2022/07/21 07:12:08;;;;;;;21.27;17.63;;;20.50;95.40;;;;;;5075125;28;20021;-75
2022/07/21 07:14:35;;;;;;;23.23;18.35;;;20.60;95.40;;;;;;5075157;28;20534;-75
2022/07/21 07:17:02;;;;;;;23.02;17.63;;;20.60;95.30;;;;;;5075707;28;20116;-75
2022/07/21 07:19:28;;;;;;;22.60;18.35;;;20.70;95.20;;;;;;5075729;28;20024;-74
2022/07/21 07:21:54;;;;;;;23.98;17.33;;;20.70;95.10;;;;;;5075510;28;20037;-75
2022/07/21 07:24:20;;;;;;;21.88;17.20;;;20.80;95.10;;;;;;5057741;28;20120;-82
2022/07/21 07:26:46;;;;;;;21.73;16.38;;;20.80;95.10;;;;;;5075416;28;20383;-84
2022/07/21 07:29:12;;;;;;;25.60;17.33;;;20.90;95.00;;;;;;5057518;28;20115;-84
2022/07/21 07:31:39;;;;;;;25.20;17.65;;;20.90;95.10;;;;;;5075210;28;20028;-84
2022/07/21 07:34:05;;;;;;;25.60;18.35;;;21.00;94.80;;;;;;5057727;28;20103;-84
2022/07/21 07:36:30;;;;;;;26.73;17.83;;;21.00;94.60;;;;;;5057384;28;20453;-84
2022/07/21 07:38:57;;;;;;;23.88;17.35;;;21.00;94.50;;;;;;5075303;28;20365;-84
2022/07/21 07:41:25;;;;;;;22.70;18.02;;;21.10;94.40;;;;;;5057385;28;20051;-83
2022/07/21 07:43:51;;;;;;;28.13;21.10;;;21.10;94.30;;;;;;5071956;28;20099;-86
2022/07/21 07:46:20;;;;;;;26.63;19.05;;;21.10;94.10;;;;;;5048813;28;20435;-84
2022/07/21 07:48:47;;;;;;;31.13;19.42;;;21.10;94.00;;;;;;5075626;28;20021;-85
2022/07/21 07:51:13;;;;;;;25.77;18.95;;;21.10;93.90;;;;;;5074822;28;20032;-83
2022/07/21 07:53:39;;;;;;;28.60;20.67;;;21.00;93.80;;;;;;5073730;28;20025;-84
2022/07/21 07:56:05;;;;;;;28.60;20.70;;;21.00;93.70;;;;;;5074626;28;20093;-82
2022/07/21 07:58:31;;;;;;;27.92;20.60;;;21.00;93.60;;;;;;5076364;28;20061;-83
2022/07/21 08:00:57;;;;;;;28.45;20.00;;;20.90;93.60;;;;;;5077814;28;20037;-83
2022/07/21 08:03:24;;;;;;;27.92;20.23;;;21.00;93.60;;;;;;5077577;28;20029;-84
2022/07/21 08:05:50;;;;;;;30.55;22.25;;;21.00;93.50;;;;;;5057737;28;20029;-82
2022/07/21 08:08:16;;;;;;;30.08;21.10;;;21.00;93.50;;;;;;5073212;28;20020;-84
2022/07/21 08:10:43;;;;;;;26.60;20.20;;;21.00;93.40;;;;;;5065859;28;20542;-83
2022/07/21 08:13:10;;;;;;;28.10;19.23;;;21.00;93.50;;;;;;5082061;28;20418;-82
2022/07/21 08:15:36;;;;;;;26.50;19.80;;;21.00;93.50;;;;;;5096168;28;20028;-83
2022/07/21 08:18:03;;;;;;;25.52;17.90;;;21.10;93.80;;;;;;5096490;28;20036;-82
2022/07/21 08:20:28;;;;;;;22.38;17.27;;;21.10;93.50;;;;;;5084908;28;20120;-84
2022/07/21 08:22:54;;;;;;;21.77;15.95;;;21.20;93.50;;;;;;5075691;28;20052;-82
2022/07/21 08:25:20;;;;;;;24.60;17.55;;;21.20;93.40;;;;;;5076436;28;20028;-84
2022/07/21 08:27:45;;;;;;;26.00;18.17;;;21.30;93.30;;;;;;5054549;28;20029;-83
2022/07/21 08:30:11;;;;;;;25.17;18.63;;;21.40;93.20;;;;;;5075882;28;20025;-86
2022/07/21 08:32:37;;;;;;;25.70;18.70;;;21.40;93.20;;;;;;5076179;28;20066;-84
2022/07/21 08:35:08;;;;;;;22.50;16.45;;;21.40;93.10;;;;;;5075738;28;20082;-84
2022/07/21 08:37:37;;;;;;;23.50;18.42;;;21.50;93.00;;;;;;5057277;28;20542;-83
2022/07/21 08:40:08;;;;;;;22.92;16.02;;;21.50;92.80;;;;;;5077539;28;20035;-85
2022/07/21 08:42:34;;;;;;;23.98;18.30;;;21.50;92.80;;;;;;5076976;28;20032;-84
2022/07/21 08:45:00;;;;;;;27.38;18.45;;;21.40;92.80;;;;;;5075461;28;20037;-84
2022/07/21 08:47:27;;;;;;;26.90;18.27;;;21.40;92.80;;;;;;5075675;28;20350;-83
2022/07/21 08:49:54;;;;;;;18.98;14.70;;;21.30;92.80;;;;;;5076860;28;20036;-83
2022/07/21 08:52:20;;;;;;;22.25;16.30;;;21.30;92.90;;;;;;5076564;28;20067;-83
2022/07/21 08:54:46;;;;;;;25.95;18.10;;;21.20;92.80;;;;;;5076821;28;20052;-82
2022/07/21 08:57:12;;;;;;;25.20;17.15;;;21.20;93.00;;;;;;5077253;28;20025;-83
2022/07/21 08:59:37;;;;;;;25.63;18.52;;;21.10;93.00;;;;;;5074797;28;20476;-82
2022/07/21 09:02:03;;;;;;;29.85;20.98;;;21.10;93.10;;;;;;5055769;28;20033;-80
2022/07/21 09:04:32;;;;;;;26.20;20.50;;;21.10;93.40;;;;;;5072519;28;20032;-82
2022/07/21 09:07:00;;;;;;;27.50;20.17;;;21.00;93.40;;;;;;5073674;28;20031;-83
2022/07/21 09:09:27;;;;;;;24.98;18.88;;;21.00;93.50;;;;;;5089165;28;20484;-83
2022/07/21 09:11:54;;;;;;;26.52;18.63;;;20.90;93.70;;;;;;5065781;28;20533;-84
2022/07/21 09:14:25;;;;;;;23.05;16.08;;;20.80;94.00;;;;;;5072881;28;20017;-83
2022/07/21 09:16:56;;;;;;;23.33;16.55;;;20.70;94.20;;;;;;5073656;28;20029;-86
2022/07/21 09:19:35;;;;;;;23.42;15.35;;;20.70;94.50;;;;;;5072436;28;20087;-83
2022/07/21 09:22:03;;;;;;;21.33;16.10;;;20.60;94.80;;;;;;5072334;28;20119;-84
2022/07/21 09:24:38;;;;;;;24.45;15.90;;;20.60;95.10;;;;;;5072270;28;20017;-82
2022/07/21 09:27:16;;;;;;;24.08;16.38;;;20.50;95.60;;;;;;5071400;28;20430;-85
2022/07/21 09:29:47;;;;;;;21.50;13.95;;;20.50;96.10;;;;;;5072296;28;20107;-84
2022/07/21 09:32:18;;;;;;;18.13;13.10;;;20.40;96.80;;;;;;5073584;28;20016;-84
2022/07/21 09:34:45;;;;;;;16.35;11.35;;;20.20;96.90;;;;;;5059539;28;20028;-82
2022/07/21 09:37:10;;;;;;;19.27;11.27;;;20.20;97.10;;;;;;5066690;28;20506;-84
2022/07/21 09:39:51;;;;;;;15.63;9.90;;;20.10;97.30;;;;;;5067864;28;20103;-83
2022/07/21 09:42:22;;;;;;;14.30;10.50;;;20.00;97.70;;;;;;5072956;28;20029;-82
2022/07/21 09:44:50;;;;;;;15.85;10.45;;;20.00;97.90;;;;;;5073175;28;20078;-82
2022/07/21 09:47:18;;;;;;;12.70;9.23;;;19.80;98.00;;;;;;5073087;28;20028;-87
2022/07/21 09:49:44;;;;;;;15.23;9.65;;;19.80;98.30;;;;;;5053320;28;20112;-82
2022/07/21 09:52:29;;;;;;;18.02;10.05;;;19.80;98.60;;;;;;5068418;28;20028;-81
2022/07/21 09:55:03;;;;;;;12.32;8.60;;;19.80;98.80;;;;;;5053068;28;20037;-82
2022/07/21 09:57:30;;;;;;;13.60;8.77;;;19.70;98.80;;;;;;5055765;28;20051;-84
2022/07/21 09:59:57;;;;;;;14.45;8.90;;;19.70;99.10;;;;;;5086523;28;20369;-83
2022/07/21 10:02:31;;;;;;;14.27;8.43;;;19.60;99.40;;;;;;5093321;28;20043;-81
2022/07/21 10:05:02;;;;;;;;;;;19.60;99.80;;;;;;5068633;28;20032;-81
2022/07/21 10:07:28;;;;;;;12.30;8.40;;;19.50;99.90;;;;;;5067516;28;20375;-81
2022/07/21 10:09:55;;;;;;;12.75;8.38;;;19.50;99.90;;;;;;5072968;28;20020;-81
2022/07/21 10:12:22;;;;;;;10.88;7.72;;;19.40;99.90;;;;;;5073118;28;20545;-81
2022/07/21 10:14:48;;;;;;;11.60;7.68;;;19.50;99.90;;;;;;5073145;28;20028;-81
2022/07/21 10:17:15;;;;;;;13.20;8.63;;;19.50;99.90;;;;;;5072929;28;20173;-81
2022/07/21 10:20:18;;;;;;;11.45;8.20;;;19.50;99.90;;;;;;5038301;28;20043;-80
2022/07/21 10:23:12;;;;;;;14.75;8.23;;;19.40;99.90;;;;;;5054845;28;20058;-81
2022/07/21 10:25:43;;;;;;;11.32;8.02;;;19.50;99.90;;;;;;5068270;28;20517;-80
2022/07/21 10:28:27;;;;;;;11.30;7.75;;;19.50;99.90;;;;;;5049142;28;20025;-81
2022/07/21 10:30:57;;;;;;;;;;;19.40;99.90;;;;;;5067865;28;20021;-81
2022/07/21 10:33:44;;;;;;;11.60;8.55;;;19.50;99.90;;;;;;5072773;28;19908;-80
2022/07/21 10:36:31;;;;;;;12.68;7.68;;;19.50;99.90;;;;;;5060846;28;20071;-81
2022/07/21 10:39:14;;;;;;;10.80;8.35;;;19.50;99.90;;;;;;5056196;28;20435;-82
2022/07/21 10:41:43;;;;;;;11.68;8.52;;;19.50;99.90;;;;;;5056922;28;20060;-81
2022/07/21 10:44:27;;;;;;;11.68;9.32;;;19.50;99.90;;;;;;5073082;28;20020;-79
2022/07/21 10:47:10;;;;;;;13.57;9.50;;;19.40;99.90;;;;;;5053386;28;20455;-82
2022/07/21 10:49:45;;;;;;;13.88;10.35;;;19.50;99.90;;;;;;5075799;28;20025;-81
2022/07/21 10:52:35;;;;;;;14.32;10.95;;;19.40;99.90;;;;;;5074857;28;20358;-83
2022/07/21 10:55:14;;;;;;;12.35;9.60;;;19.40;99.90;;;;;;5076630;28;20048;-83
2022/07/21 10:57:41;;;;;;;13.95;9.70;;;19.40;99.90;;;;;;5054420;28;20087;-82
2022/07/21 11:00:24;;;;;;;14.07;8.82;;;19.40;99.90;;;;;;5072045;28;20039;-84
2022/07/21 11:03:02;;;;;;;11.75;8.38;;;19.30;99.90;;;;;;5063515;28;20064;-81
2022/07/21 11:05:31;;;;;;;11.32;8.02;;;19.30;99.90;;;;;;5068185;28;20021;-81
2022/07/21 11:08:20;;;;;;;11.70;8.68;;;19.30;99.90;;;;;;5067700;28;20032;-82
2022/07/21 11:10:52;;;;;;;12.30;8.38;;;19.20;99.90;;;;;;5066638;28;20044;-83
2022/07/21 11:13:21;;;;;;;9.48;6.45;;;19.20;99.90;;;;;;5062995;28;20033;-84
2022/07/21 11:15:59;;;;;;;9.18;6.85;;;19.20;99.90;;;;;;5066828;28;20044;-82
2022/07/21 11:18:31;;;;;;;8.50;6.50;;;19.20;99.90;;;;;;5052185;28;20029;-85
2022/07/21 11:21:08;;;;;;;10.38;7.40;;;19.10;99.90;;;;;;5069618;28;20104;-82
2022/07/21 11:23:48;;;;;;;10.82;8.52;;;19.10;99.90;;;;;;5056584;28;20365;-82
2022/07/21 11:26:22;;;;;;;14.25;10.57;;;19.10;99.90;;;;;;5074173;28;20040;-83
2022/07/21 11:29:04;;;;;;;12.98;9.50;;;19.00;99.90;;;;;;5056167;28;20082;-82
2022/07/21 11:31:29;;;;;;;13.65;9.85;;;19.10;99.90;;;;;;5074878;28;20025;-82
2022/07/21 11:33:55;;;;;;;14.07;10.38;;;19.10;99.90;;;;;;5065406;28;20025;-83
2022/07/21 11:36:27;;;;;;;14.60;10.82;;;19.10;99.90;;;;;;5059818;28;20041;-82
2022/07/21 11:39:06;;;;;;;14.77;10.82;;;19.20;99.90;;;;;;5072153;28;20060;-80
2022/07/21 11:41:33;;;;;;;16.70;12.32;;;19.20;99.90;;;;;;5063873;28;20488;-80
2022/07/21 11:43:58;;;;;;;13.82;11.18;;;19.10;99.90;;;;;;5065554;28;20028;-79
2022/07/21 11:46:24;;;;;;;18.30;12.80;;;19.10;99.90;;;;;;5058378;28;20094;-80
2022/07/21 11:49:04;;;;;;;17.80;13.75;;;19.10;99.90;;;;;;5055020;28;20033;-80
2022/07/21 11:51:30;;;;;;;23.20;16.70;;;19.00;99.90;;;;;;5070295;28;20020;-79
2022/07/21 11:53:55;;;;;;;22.27;16.27;;;19.00;99.90;;;;;;5073790;28;20376;-79
2022/07/21 11:56:21;;;;;;;19.33;16.30;;;19.00;99.90;;;;;;5062365;28;20049;-82
2022/07/21 11:58:48;;;;;;;19.55;15.82;;;19.00;99.90;;;;;;5049576;28;20033;-82
2022/07/21 12:01:14;;;;;;;20.95;16.40;;;19.00;99.90;;;;;;5074708;28;20020;-81
2022/07/21 12:03:50;;;;;;;21.30;17.88;;;19.00;99.90;;;;;;5056350;28;20508;-81
2022/07/21 12:06:17;;;;;;;25.92;19.55;;;19.00;99.90;;;;;;5074612;28;20047;-82
2022/07/21 12:08:44;;;;;;;24.13;19.00;;;19.00;99.90;;;;;;5074790;28;20025;-84
2022/07/21 12:11:12;;;;;;;20.38;16.73;;;19.00;99.90;;;;;;5090288;28;20028;-82
2022/07/21 12:13:58;;;;;;;20.15;16.10;;;19.00;99.90;;;;;;5074624;28;20036;-82
2022/07/21 12:16:24;;;;;;;21.85;17.98;;;19.00;99.90;;;;;;5074403;28;20445;-82
2022/07/21 12:19:12;;;;;;;25.02;18.52;;;19.10;99.90;;;;;;5074270;28;20035;-79
2022/07/21 12:21:45;;;;;;;20.88;15.38;;;19.10;99.90;;;;;;5074305;28;20060;-83
2022/07/21 12:24:11;;;;;;;21.02;17.98;;;19.20;99.90;;;;;;5072882;28;20059;-83
2022/07/21 12:26:37;;;;;;;26.13;18.05;;;19.20;99.90;;;;;;5073810;28;20108;-83
2022/07/21 12:29:02;;;;;;;20.08;16.27;;;19.30;99.90;;;;;;5073727;28;20119;-83
2022/07/21 12:31:33;;;;;;;20.55;17.70;;;19.20;99.90;;;;;;5041459;28;20497;-85
2022/07/21 12:34:11;;;;;;;21.00;17.00;;;19.30;99.90;;;;;;5053773;28;20527;-83
2022/07/21 12:36:37;;;;;;;19.25;14.52;;;19.30;99.90;;;;;;5053701;28;20021;-82